createdAt,value
2022-10-19T05:29:49.018Z,35.83
2022-10-19T05:32:17.337Z,34.25
2022-10-19T05:34:45.142Z,36.03
2022-10-19T05:37:13.003Z,33.17
2022-10-19T05:39:40.757Z,28.67
2022-10-19T05:42:08.469Z,28.10
2022-10-19T05:47:09.424Z,26.05
2022-10-19T05:49:37.327Z,23.48
2022-10-19T05:52:05.437Z,24.50
2022-10-19T05:54:33.231Z,24.02
2022-10-19T05:57:01.216Z,26.13
2022-10-19T05:59:29.007Z,24.25
2022-10-19T06:01:56.921Z,25.60
2022-10-19T06:04:25.217Z,24.98
2022-10-19T06:06:53.161Z,25.65
2022-10-19T06:09:20.866Z,21.23
2022-10-19T06:11:48.542Z,23.05
2022-10-19T06:14:16.576Z,26.63
2022-10-19T06:16:46.202Z,23.45
2022-10-19T06:19:14.417Z,20.48
2022-10-19T06:21:45.726Z,24.77
2022-10-19T06:24:14.011Z,25.83
2022-10-19T06:26:41.870Z,25.20
2022-10-19T06:29:09.823Z,24.23
2022-10-19T06:31:38.449Z,23.77
2022-10-19T06:34:06.675Z,23.73
2022-10-19T06:36:34.802Z,23.60
2022-10-19T06:39:02.829Z,21.85
2022-10-19T06:41:31.287Z,23.48
2022-10-19T06:44:10.522Z,24.10
2022-10-19T06:46:38.518Z,20.38
2022-10-19T06:49:06.370Z,21.73
2022-10-19T06:51:34.285Z,21.73
2022-10-19T06:54:02.263Z,24.58
2022-10-19T06:56:29.995Z,22.10
2022-10-19T06:59:00.879Z,24.13
2022-10-19T07:01:29.142Z,23.30
2022-10-19T07:03:56.993Z,21.90
2022-10-19T07:06:25.962Z,21.08
2022-10-19T07:08:53.807Z,19.13
2022-10-19T07:11:22.696Z,25.20
2022-10-19T07:13:50.537Z,24.08
2022-10-19T07:16:21.048Z,22.73
2022-10-19T07:18:50.938Z,19.33
2022-10-19T07:21:19.298Z,22.02
2022-10-19T07:23:47.554Z,19.35
2022-10-19T07:26:16.335Z,17.85
2022-10-19T07:28:45.510Z,21.73
2022-10-19T07:31:15.105Z,22.35
2022-10-19T07:33:42.978Z,27.70
2022-10-19T07:36:11.016Z,24.65
2022-10-19T07:38:38.835Z,21.73
2022-10-19T07:41:13.557Z,25.73
2022-10-19T07:43:41.901Z,19.35
2022-10-19T07:46:17.697Z,24.05
2022-10-19T07:48:45.420Z,22.40
2022-10-19T07:51:14.271Z,27.50
2022-10-19T07:53:42.574Z,29.25
2022-10-19T07:56:11.884Z,22.42
2022-10-19T07:58:39.789Z,21.17
2022-10-19T08:01:09.783Z,21.75
2022-10-19T08:06:25.630Z,21.80
2022-10-19T08:08:53.662Z,19.20
2022-10-19T08:11:23.541Z,20.33
2022-10-19T08:13:51.658Z,17.05
2022-10-19T08:16:29.726Z,21.20
2022-10-19T08:18:59.671Z,27.38
2022-10-19T08:21:27.850Z,21.35
2022-10-19T08:23:55.583Z,20.25
2022-10-19T08:26:23.828Z,29.77
2022-10-19T08:28:51.594Z,23.83
2022-10-19T08:31:21.224Z,25.35
2022-10-19T08:33:52.162Z,19.08
2022-10-19T08:36:21.393Z,18.95
2022-10-19T08:38:49.446Z,23.85
2022-10-19T08:41:29.607Z,20.25
2022-10-19T08:44:16.292Z,22.60
2022-10-19T08:47:12.506Z,22.67
2022-10-19T08:49:41.594Z,25.13
2022-10-19T08:52:22.985Z,25.35
2022-10-19T08:54:58.835Z,28.10
2022-10-19T08:57:50.820Z,25.48
2022-10-19T09:00:24.453Z,27.85
2022-10-19T09:03:23.038Z,29.48
2022-10-19T09:06:22.531Z,27.30
2022-10-19T09:08:52.226Z,26.30
2022-10-19T09:11:26.113Z,29.02
2022-10-19T09:14:08.359Z,26.27
2022-10-19T09:16:36.298Z,27.40
2022-10-19T09:19:29.329Z,26.70
2022-10-19T09:21:57.501Z,26.48
2022-10-19T09:24:34.973Z,22.23
2022-10-19T09:27:03.199Z,25.98
2022-10-19T09:29:58.590Z,22.77
2022-10-19T09:32:37.200Z,22.70
2022-10-19T09:35:23.820Z,27.55
2022-10-19T09:37:51.870Z,23.52
2022-10-19T09:40:24.608Z,26.77
2022-10-19T09:42:57.379Z,23.08
2022-10-19T09:45:46.406Z,24.73
2022-10-19T09:48:24.753Z,22.88
2022-10-19T09:50:56.089Z,26.80
2022-10-19T09:53:24.756Z,22.33
2022-10-19T09:55:57.981Z,21.20
2022-10-19T09:58:30.476Z,19.20
2022-10-19T10:01:01.839Z,17.77
2022-10-19T10:03:39.471Z,16.77
2022-10-19T10:06:13.847Z,16.20
2022-10-19T10:08:49.870Z,17.50
2022-10-19T10:11:25.703Z,17.30
2022-10-19T10:13:54.551Z,16.60
2022-10-19T10:16:23.905Z,17.98
2022-10-19T10:18:55.389Z,16.63
2022-10-19T10:21:33.720Z,16.42
2022-10-19T10:24:07.015Z,14.40
2022-10-19T10:26:42.413Z,16.13
2022-10-19T10:29:30.258Z,19.15
2022-10-19T10:32:05.328Z,17.92
2022-10-19T10:34:50.140Z,16.73
2022-10-19T10:37:41.865Z,17.25
2022-10-19T10:40:36.393Z,16.08
2022-10-19T10:43:09.259Z,20.60
2022-10-19T10:45:44.337Z,16.73
2022-10-19T10:48:17.920Z,13.27
2022-10-19T10:50:45.667Z,14.25
2022-10-19T10:53:32.885Z,17.65
2022-10-19T10:56:00.684Z,13.77
2022-10-19T10:58:43.447Z,13.55
2022-10-19T11:01:19.621Z,14.48
2022-10-19T11:03:52.828Z,14.38
2022-10-19T11:06:21.397Z,12.98
2022-10-19T11:09:07.453Z,13.50
2022-10-19T11:11:36.972Z,10.95
2022-10-19T11:14:28.619Z,12.00
2022-10-19T11:16:58.675Z,11.45
2022-10-19T11:19:39.543Z,12.38
2022-10-19T11:22:22.425Z,14.63
2022-10-19T11:25:12.827Z,12.63
2022-10-19T11:28:17.242Z,16.48
2022-10-19T11:31:09.693Z,11.98
2022-10-19T11:33:48.045Z,12.80
2022-10-19T11:36:45.209Z,12.82
2022-10-19T11:39:25.095Z,11.05
2022-10-19T11:41:55.925Z,10.82
2022-10-19T11:44:31.054Z,12.27
2022-10-19T11:47:08.759Z,15.82
2022-10-19T11:49:51.563Z,11.40
2022-10-19T11:52:31.641Z,10.75
2022-10-19T11:55:12.408Z,12.50
2022-10-19T11:57:58.024Z,26.48
2022-10-19T12:00:38.828Z,13.85
2022-10-19T12:03:10.751Z,10.68
2022-10-19T12:09:09.433Z,26.13
2022-10-19T12:11:45.459Z,12.02
2022-10-19T12:14:16.020Z,13.70
2022-10-19T12:16:46.149Z,13.52
2022-10-19T12:19:19.721Z,12.18
2022-10-19T12:21:47.482Z,15.73
2022-10-19T12:24:23.655Z,12.27
2022-10-19T12:26:52.691Z,12.23
2022-10-19T12:29:26.060Z,12.52
2022-10-19T12:31:54.056Z,13.55
2022-10-19T12:34:47.287Z,13.90
2022-10-19T12:37:54.971Z,13.75
2022-10-19T12:40:37.379Z,17.63
2022-10-19T12:43:08.730Z,13.25
2022-10-19T12:45:48.061Z,12.60
2022-10-19T12:48:20.462Z,13.50
2022-10-19T12:50:48.334Z,14.20
2022-10-19T12:53:44.421Z,15.02
2022-10-19T12:56:21.316Z,14.05
2022-10-19T12:58:50.922Z,11.65
2022-10-19T13:01:29.787Z,13.05
2022-10-19T13:04:08.317Z,14.13
2022-10-19T13:06:43.506Z,17.40
2022-10-19T13:09:22.900Z,15.13
2022-10-19T13:12:22.410Z,18.08
2022-10-19T13:14:57.490Z,12.05
2022-10-19T13:17:34.689Z,14.00
2022-10-19T13:20:25.022Z,11.90
2022-10-19T13:23:04.889Z,11.38
2022-10-19T13:25:33.088Z,13.18
2022-10-19T13:28:00.660Z,11.93
2022-10-19T13:30:38.379Z,17.17
2022-10-19T13:33:33.388Z,13.35
2022-10-19T13:36:02.630Z,13.32
2022-10-19T13:39:08.052Z,14.55
2022-10-19T13:41:38.652Z,15.68
2022-10-19T13:44:09.302Z,20.35
2022-10-19T13:47:04.416Z,12.60
2022-10-19T13:49:42.171Z,12.52
2022-10-19T13:52:22.068Z,19.13
2022-10-19T13:55:36.523Z,19.30
2022-10-19T13:58:40.551Z,14.98
2022-10-19T14:01:23.600Z,17.73
2022-10-19T14:04:01.376Z,18.73
2022-10-19T14:06:29.039Z,16.13
2022-10-19T14:09:38.239Z,19.73
2022-10-19T14:12:23.477Z,22.25
2022-10-19T14:14:53.802Z,20.27
2022-10-19T14:17:28.008Z,20.80
2022-10-19T14:20:00.040Z,19.75
2022-10-19T14:22:36.094Z,17.20
2022-10-19T14:25:18.135Z,16.88
2022-10-19T14:27:46.564Z,18.25
2022-10-19T14:30:34.611Z,15.77
2022-10-19T14:33:06.903Z,22.33
2022-10-19T14:35:36.498Z,18.27
2022-10-19T14:38:08.756Z,21.63
2022-10-19T14:40:40.588Z,21.23
2022-10-19T14:43:25.231Z,17.77
2022-10-19T14:46:29.550Z,21.40
2022-10-19T14:49:06.443Z,18.92
2022-10-19T14:51:38.763Z,19.98
2022-10-19T14:54:42.152Z,20.02
2022-10-19T14:57:15.864Z,20.33
2022-10-19T14:59:46.512Z,21.52
2022-10-19T15:02:25.364Z,19.85
2022-10-19T15:04:53.794Z,22.85
2022-10-19T15:07:40.187Z,21.48
2022-10-19T15:10:15.599Z,17.35
2022-10-19T15:12:43.717Z,18.63
2022-10-19T15:15:17.295Z,19.38
2022-10-19T15:17:52.456Z,25.75
2022-10-19T15:20:44.252Z,23.83
2022-10-19T15:23:29.032Z,22.27
2022-10-19T15:26:07.223Z,23.15
2022-10-19T15:28:40.768Z,22.50
2022-10-19T15:31:25.416Z,23.45
2022-10-19T15:33:55.121Z,22.83
2022-10-19T15:36:23.378Z,23.73
2022-10-19T15:39:11.838Z,33.33
2022-10-19T15:41:50.207Z,24.08
2022-10-19T15:44:34.873Z,22.08
2022-10-19T15:47:15.329Z,32.08
2022-10-19T15:49:43.326Z,28.00
2022-10-19T15:52:21.310Z,21.83
2022-10-19T15:54:54.026Z,22.90
2022-10-19T15:57:26.745Z,27.42
2022-10-19T15:59:55.938Z,21.05
2022-10-19T16:02:25.257Z,21.00
2022-10-19T16:04:54.166Z,22.42
2022-10-19T16:07:28.380Z,23.23
2022-10-19T16:09:57.318Z,22.95
2022-10-19T16:12:26.385Z,23.80
2022-10-19T16:14:54.905Z,23.55
2022-10-19T16:17:22.812Z,24.17
2022-10-19T16:19:50.540Z,23.67
2022-10-19T16:22:18.429Z,22.92
2022-10-19T16:24:46.383Z,21.42
2022-10-19T16:27:17.146Z,24.73
2022-10-19T16:29:45.037Z,22.75
2022-10-19T16:32:12.779Z,24.02
2022-10-19T16:34:41.500Z,23.92
2022-10-19T16:37:09.330Z,27.17
2022-10-19T16:39:37.364Z,21.15
2022-10-19T16:42:05.143Z,25.63
2022-10-19T16:44:32.955Z,27.17
2022-10-19T16:47:00.849Z,26.25
2022-10-19T16:49:29.171Z,25.08
2022-10-19T16:51:57.749Z,23.83
2022-10-19T16:54:30.140Z,23.92
2022-10-19T16:56:58.122Z,25.38
2022-10-19T16:59:25.846Z,24.70
2022-10-19T17:01:54.045Z,25.30
2022-10-19T17:04:22.244Z,30.25
